sensor_id;sensor_type;location;lat;lon;timestamp;P1;durP1;ratioP1;P2;durP2;ratioP2
33266;SDS011;19638;49.080;11.896;2023-02-23T00:02:52;14.37;;;8.67;;
33266;SDS011;19638;49.080;11.896;2023-02-23T00:06:56;15.60;;;8.77;;
33266;SDS011;19638;49.080;11.896;2023-02-23T00:11:01;16.17;;;9.67;;
33266;SDS011;19638;49.080;11.896;2023-02-23T00:15:06;17.60;;;10.07;;
33266;SDS011;19638;49.080;11.896;2023-02-23T00:19:10;20.27;;;9.27;;
33266;SDS011;19638;49.080;11.896;2023-02-23T00:23:14;14.67;;;8.47;;
33266;SDS011;19638;49.080;11.896;2023-02-23T00:27:18;16.43;;;8.17;;
33266;SDS011;19638;49.080;11.896;2023-02-23T00:31:23;13.67;;;8.23;;
33266;SDS011;19638;49.080;11.896;2023-02-23T00:35:31;17.93;;;9.73;;
33266;SDS011;19638;49.080;11.896;2023-02-23T00:39:34;18.47;;;9.77;;
33266;SDS011;19638;49.080;11.896;2023-02-23T00:43:40;17.03;;;9.10;;
33266;SDS011;19638;49.080;11.896;2023-02-23T00:47:47;18.03;;;8.97;;
33266;SDS011;19638;49.080;11.896;2023-02-23T00:51:52;16.80;;;7.60;;
33266;SDS011;19638;49.080;11.896;2023-02-23T00:55:58;13.37;;;8.03;;
33266;SDS011;19638;49.080;11.896;2023-02-23T01:00:03;14.80;;;7.87;;
33266;SDS011;19638;49.080;11.896;2023-02-23T01:04:15;16.50;;;8.13;;
33266;SDS011;19638;49.080;11.896;2023-02-23T01:08:18;17.20;;;7.67;;
33266;SDS011;19638;49.080;11.896;2023-02-23T01:12:22;12.53;;;7.07;;
33266;SDS011;19638;49.080;11.896;2023-02-23T01:16:29;13.47;;;7.60;;
33266;SDS011;19638;49.080;11.896;2023-02-23T01:20:36;14.17;;;7.83;;
33266;SDS011;19638;49.080;11.896;2023-02-23T01:24:42;12.50;;;7.83;;
33266;SDS011;19638;49.080;11.896;2023-02-23T01:28:47;14.80;;;8.30;;
33266;SDS011;19638;49.080;11.896;2023-02-23T01:32:52;18.00;;;9.47;;
33266;SDS011;19638;49.080;11.896;2023-02-23T01:36:58;22.80;;;10.67;;
33266;SDS011;19638;49.080;11.896;2023-02-23T01:41:01;16.30;;;8.63;;
33266;SDS011;19638;49.080;11.896;2023-02-23T01:45:17;14.93;;;8.33;;
33266;SDS011;19638;49.080;11.896;2023-02-23T01:49:28;14.63;;;7.90;;
33266;SDS011;19638;49.080;11.896;2023-02-23T01:53:35;12.97;;;7.40;;
33266;SDS011;19638;49.080;11.896;2023-02-23T01:57:47;12.87;;;7.97;;
33266;SDS011;19638;49.080;11.896;2023-02-23T02:01:53;14.93;;;7.90;;
33266;SDS011;19638;49.080;11.896;2023-02-23T02:06:02;14.80;;;7.87;;
33266;SDS011;19638;49.080;11.896;2023-02-23T02:10:11;12.77;;;7.27;;
33266;SDS011;19638;49.080;11.896;2023-02-23T02:14:34;12.53;;;7.50;;
33266;SDS011;19638;49.080;11.896;2023-02-23T02:18:41;12.93;;;7.13;;
33266;SDS011;19638;49.080;11.896;2023-02-23T02:23:03;12.33;;;7.87;;
33266;SDS011;19638;49.080;11.896;2023-02-23T02:27:36;18.97;;;9.47;;
33266;SDS011;19638;49.080;11.896;2023-02-23T02:32:18;18.43;;;7.90;;
33266;SDS011;19638;49.080;11.896;2023-02-23T02:36:57;13.63;;;7.57;;
33266;SDS011;19638;49.080;11.896;2023-02-23T02:41:24;14.33;;;7.47;;
33266;SDS011;19638;49.080;11.896;2023-02-23T02:45:40;12.10;;;7.60;;
33266;SDS011;19638;49.080;11.896;2023-02-23T02:49:55;18.73;;;8.27;;
33266;SDS011;19638;49.080;11.896;2023-02-23T02:54:12;13.60;;;7.73;;
33266;SDS011;19638;49.080;11.896;2023-02-23T02:58:29;15.17;;;7.20;;
33266;SDS011;19638;49.080;11.896;2023-02-23T03:02:36;13.47;;;7.50;;
33266;SDS011;19638;49.080;11.896;2023-02-23T03:07:02;13.57;;;7.50;;
33266;SDS011;19638;49.080;11.896;2023-02-23T03:11:31;16.50;;;8.23;;
33266;SDS011;19638;49.080;11.896;2023-02-23T03:15:59;15.87;;;7.83;;
33266;SDS011;19638;49.080;11.896;2023-02-23T03:20:32;14.80;;;7.97;;
33266;SDS011;19638;49.080;11.896;2023-02-23T03:25:03;13.87;;;7.40;;
33266;SDS011;19638;49.080;11.896;2023-02-23T03:29:35;17.40;;;7.73;;
33266;SDS011;19638;49.080;11.896;2023-02-23T03:34:01;14.63;;;7.67;;
33266;SDS011;19638;49.080;11.896;2023-02-23T03:38:31;15.63;;;8.03;;
33266;SDS011;19638;49.080;11.896;2023-02-23T03:42:59;14.93;;;8.07;;
33266;SDS011;19638;49.080;11.896;2023-02-23T03:47:23;13.57;;;7.67;;
33266;SDS011;19638;49.080;11.896;2023-02-23T03:51:52;13.43;;;8.13;;
33266;SDS011;19638;49.080;11.896;2023-02-23T03:56:17;16.50;;;9.00;;
33266;SDS011;19638;49.080;11.896;2023-02-23T04:00:41;14.33;;;7.83;;
33266;SDS011;19638;49.080;11.896;2023-02-23T04:05:07;16.43;;;8.53;;
33266;SDS011;19638;49.080;11.896;2023-02-23T04:09:30;14.70;;;7.90;;
33266;SDS011;19638;49.080;11.896;2023-02-23T04:13:53;13.87;;;7.83;;
33266;SDS011;19638;49.080;11.896;2023-02-23T04:18:02;14.57;;;8.43;;
33266;SDS011;19638;49.080;11.896;2023-02-23T04:22:09;18.40;;;8.40;;
33266;SDS011;19638;49.080;11.896;2023-02-23T04:26:15;15.00;;;8.67;;
33266;SDS011;19638;49.080;11.896;2023-02-23T04:30:18;15.43;;;9.30;;
33266;SDS011;19638;49.080;11.896;2023-02-23T04:34:26;15.97;;;9.70;;
33266;SDS011;19638;49.080;11.896;2023-02-23T04:38:34;16.30;;;8.53;;
33266;SDS011;19638;49.080;11.896;2023-02-23T04:42:37;14.90;;;8.13;;
33266;SDS011;19638;49.080;11.896;2023-02-23T04:46:41;17.73;;;9.07;;
33266;SDS011;19638;49.080;11.896;2023-02-23T04:50:45;14.67;;;7.97;;
33266;SDS011;19638;49.080;11.896;2023-02-23T04:54:49;15.90;;;7.43;;
33266;SDS011;19638;49.080;11.896;2023-02-23T04:58:52;17.60;;;7.97;;
33266;SDS011;19638;49.080;11.896;2023-02-23T05:02:56;15.47;;;7.83;;
33266;SDS011;19638;49.080;11.896;2023-02-23T05:07:03;17.40;;;8.07;;
33266;SDS011;19638;49.080;11.896;2023-02-23T05:11:08;15.17;;;7.67;;
33266;SDS011;19638;49.080;11.896;2023-02-23T05:15:11;14.23;;;7.37;;
33266;SDS011;19638;49.080;11.896;2023-02-23T05:19:16;18.60;;;7.97;;
33266;SDS011;19638;49.080;11.896;2023-02-23T05:23:19;20.70;;;8.03;;
33266;SDS011;19638;49.080;11.896;2023-02-23T05:27:28;18.43;;;8.77;;
33266;SDS011;19638;49.080;11.896;2023-02-23T05:31:33;14.03;;;7.90;;
33266;SDS011;19638;49.080;11.896;2023-02-23T05:35:38;17.13;;;8.10;;
33266;SDS011;19638;49.080;11.896;2023-02-23T05:39:41;15.93;;;8.63;;
33266;SDS011;19638;49.080;11.896;2023-02-23T05:43:47;19.40;;;8.80;;
33266;SDS011;19638;49.080;11.896;2023-02-23T05:47:55;19.80;;;9.27;;
33266;SDS011;19638;49.080;11.896;2023-02-23T05:52:00;17.87;;;8.70;;
33266;SDS011;19638;49.080;11.896;2023-02-23T05:56:04;15.07;;;8.50;;
33266;SDS011;19638;49.080;11.896;2023-02-23T06:00:15;15.33;;;7.47;;
33266;SDS011;19638;49.080;11.896;2023-02-23T06:04:23;16.53;;;9.33;;
33266;SDS011;19638;49.080;11.896;2023-02-23T06:08:27;16.93;;;8.33;;
33266;SDS011;19638;49.080;11.896;2023-02-23T06:12:34;17.53;;;8.93;;
33266;SDS011;19638;49.080;11.896;2023-02-23T06:16:39;16.07;;;9.30;;
33266;SDS011;19638;49.080;11.896;2023-02-23T06:20:45;19.30;;;8.83;;
33266;SDS011;19638;49.080;11.896;2023-02-23T06:24:57;16.03;;;8.80;;
33266;SDS011;19638;49.080;11.896;2023-02-23T06:29:07;19.87;;;9.37;;
33266;SDS011;19638;49.080;11.896;2023-02-23T06:33:13;18.27;;;8.00;;
33266;SDS011;19638;49.080;11.896;2023-02-23T06:37:17;18.47;;;9.20;;
33266;SDS011;19638;49.080;11.896;2023-02-23T06:41:20;17.73;;;10.23;;
33266;SDS011;19638;49.080;11.896;2023-02-23T06:45:29;22.10;;;9.37;;
33266;SDS011;19638;49.080;11.896;2023-02-23T06:49:36;19.13;;;8.47;;
33266;SDS011;19638;49.080;11.896;2023-02-23T06:53:40;16.20;;;8.40;;
33266;SDS011;19638;49.080;11.896;2023-02-23T06:57:47;19.20;;;9.27;;
33266;SDS011;19638;49.080;11.896;2023-02-23T07:01:51;19.87;;;9.73;;
33266;SDS011;19638;49.080;11.896;2023-02-23T07:05:56;24.03;;;10.67;;
33266;SDS011;19638;49.080;11.896;2023-02-23T07:09:59;21.00;;;10.87;;
33266;SDS011;19638;49.080;11.896;2023-02-23T07:14:02;20.60;;;9.03;;
33266;SDS011;19638;49.080;11.896;2023-02-23T07:18:06;15.40;;;8.80;;
33266;SDS011;19638;49.080;11.896;2023-02-23T07:22:12;14.53;;;8.27;;
33266;SDS011;19638;49.080;11.896;2023-02-23T07:26:17;19.60;;;9.53;;
33266;SDS011;19638;49.080;11.896;2023-02-23T07:30:21;16.03;;;8.77;;
33266;SDS011;19638;49.080;11.896;2023-02-23T07:34:25;17.37;;;9.83;;
33266;SDS011;19638;49.080;11.896;2023-02-23T07:38:32;17.43;;;9.53;;
33266;SDS011;19638;49.080;11.896;2023-02-23T07:42:35;25.27;;;10.90;;
33266;SDS011;19638;49.080;11.896;2023-02-23T07:46:39;15.87;;;9.23;;
33266;SDS011;19638;49.080;11.896;2023-02-23T07:50:42;18.03;;;10.07;;
33266;SDS011;19638;49.080;11.896;2023-02-23T07:54:49;29.63;;;15.37;;
33266;SDS011;19638;49.080;11.896;2023-02-23T07:58:52;19.57;;;10.83;;
33266;SDS011;19638;49.080;11.896;2023-02-23T08:02:57;25.90;;;10.80;;
33266;SDS011;19638;49.080;11.896;2023-02-23T08:07:03;25.83;;;10.20;;
33266;SDS011;19638;49.080;11.896;2023-02-23T08:11:07;17.00;;;9.60;;
33266;SDS011;19638;49.080;11.896;2023-02-23T08:15:16;21.20;;;10.23;;
33266;SDS011;19638;49.080;11.896;2023-02-23T08:19:23;22.60;;;11.07;;
33266;SDS011;19638;49.080;11.896;2023-02-23T08:23:29;24.08;;;11.52;;
33266;SDS011;19638;49.080;11.896;2023-02-23T08:27:34;25.17;;;10.83;;
33266;SDS011;19638;49.080;11.896;2023-02-23T08:31:38;25.48;;;12.50;;
33266;SDS011;19638;49.080;11.896;2023-02-23T08:35:41;24.03;;;13.40;;
33266;SDS011;19638;49.080;11.896;2023-02-23T08:39:45;30.73;;;15.40;;
33266;SDS011;19638;49.080;11.896;2023-02-23T08:43:50;42.92;;;17.67;;
33266;SDS011;19638;49.080;11.896;2023-02-23T08:47:53;51.72;;;22.10;;
33266;SDS011;19638;49.080;11.896;2023-02-23T08:51:59;44.53;;;20.73;;
33266;SDS011;19638;49.080;11.896;2023-02-23T08:56:02;43.58;;;21.17;;
33266;SDS011;19638;49.080;11.896;2023-02-23T09:00:16;39.03;;;19.42;;
33266;SDS011;19638;49.080;11.896;2023-02-23T09:04:19;40.78;;;20.10;;
33266;SDS011;19638;49.080;11.896;2023-02-23T09:08:23;42.55;;;20.40;;
33266;SDS011;19638;49.080;11.896;2023-02-23T09:12:27;42.00;;;20.95;;
33266;SDS011;19638;49.080;11.896;2023-02-23T09:16:33;48.85;;;22.83;;
33266;SDS011;19638;49.080;11.896;2023-02-23T09:20:36;42.92;;;21.58;;
33266;SDS011;19638;49.080;11.896;2023-02-23T09:24:43;44.83;;;23.02;;
33266;SDS011;19638;49.080;11.896;2023-02-23T09:28:46;41.90;;;21.65;;
33266;SDS011;19638;49.080;11.896;2023-02-23T09:32:54;43.70;;;22.90;;
33266;SDS011;19638;49.080;11.896;2023-02-23T09:36:59;46.25;;;22.80;;
33266;SDS011;19638;49.080;11.896;2023-02-23T09:41:07;39.20;;;21.25;;
33266;SDS011;19638;49.080;11.896;2023-02-23T09:45:34;42.58;;;21.75;;
33266;SDS011;19638;49.080;11.896;2023-02-23T09:49:46;43.80;;;21.52;;
33266;SDS011;19638;49.080;11.896;2023-02-23T09:53:54;50.15;;;24.10;;
33266;SDS011;19638;49.080;11.896;2023-02-23T09:58:03;45.83;;;22.58;;
33266;SDS011;19638;49.080;11.896;2023-02-23T10:02:15;43.40;;;23.55;;
33266;SDS011;19638;49.080;11.896;2023-02-23T10:06:27;46.10;;;23.17;;
33266;SDS011;19638;49.080;11.896;2023-02-23T10:10:39;44.67;;;21.88;;
33266;SDS011;19638;49.080;11.896;2023-02-23T10:14:57;46.55;;;22.13;;
33266;SDS011;19638;49.080;11.896;2023-02-23T10:19:10;46.63;;;22.77;;
33266;SDS011;19638;49.080;11.896;2023-02-23T10:23:23;51.95;;;24.17;;
33266;SDS011;19638;49.080;11.896;2023-02-23T10:27:35;44.85;;;22.73;;
33266;SDS011;19638;49.080;11.896;2023-02-23T10:31:44;47.05;;;23.27;;
33266;SDS011;19638;49.080;11.896;2023-02-23T10:35:51;52.10;;;24.30;;
33266;SDS011;19638;49.080;11.896;2023-02-23T10:40:15;49.95;;;22.83;;
33266;SDS011;19638;49.080;11.896;2023-02-23T10:44:24;53.45;;;22.13;;
33266;SDS011;19638;49.080;11.896;2023-02-23T10:48:31;42.55;;;22.08;;
33266;SDS011;19638;49.080;11.896;2023-02-23T10:52:42;52.13;;;23.40;;
33266;SDS011;19638;49.080;11.896;2023-02-23T10:56:50;45.28;;;22.80;;
33266;SDS011;19638;49.080;11.896;2023-02-23T11:00:54;53.47;;;24.83;;
33266;SDS011;19638;49.080;11.896;2023-02-23T11:05:05;45.75;;;22.15;;
33266;SDS011;19638;49.080;11.896;2023-02-23T11:09:27;57.55;;;24.92;;
33266;SDS011;19638;49.080;11.896;2023-02-23T11:13:49;50.45;;;23.67;;
33266;SDS011;19638;49.080;11.896;2023-02-23T11:17:56;50.97;;;24.20;;
33266;SDS011;19638;49.080;11.896;2023-02-23T11:22:03;62.60;;;25.40;;
33266;SDS011;19638;49.080;11.896;2023-02-23T11:26:20;55.72;;;23.95;;
33266;SDS011;19638;49.080;11.896;2023-02-23T11:30:36;53.10;;;23.95;;
33266;SDS011;19638;49.080;11.896;2023-02-23T11:34:45;53.25;;;24.40;;
33266;SDS011;19638;49.080;11.896;2023-02-23T11:38:56;51.22;;;23.52;;
33266;SDS011;19638;49.080;11.896;2023-02-23T11:43:05;55.47;;;24.50;;
33266;SDS011;19638;49.080;11.896;2023-02-23T11:47:21;59.15;;;23.77;;
33266;SDS011;19638;49.080;11.896;2023-02-23T11:51:27;54.55;;;22.45;;
33266;SDS011;19638;49.080;11.896;2023-02-23T11:55:37;46.30;;;21.65;;
33266;SDS011;19638;49.080;11.896;2023-02-23T11:59:50;50.28;;;22.75;;
33266;SDS011;19638;49.080;11.896;2023-02-23T12:04:08;47.30;;;22.60;;
33266;SDS011;19638;49.080;11.896;2023-02-23T12:08:34;43.35;;;20.73;;
33266;SDS011;19638;49.080;11.896;2023-02-23T12:12:53;40.15;;;19.85;;
33266;SDS011;19638;49.080;11.896;2023-02-23T12:17:02;39.47;;;18.92;;
33266;SDS011;19638;49.080;11.896;2023-02-23T12:21:14;34.63;;;14.73;;
33266;SDS011;19638;49.080;11.896;2023-02-23T12:25:33;29.52;;;13.48;;
33266;SDS011;19638;49.080;11.896;2023-02-23T12:29:42;25.67;;;13.32;;
33266;SDS011;19638;49.080;11.896;2023-02-23T12:33:54;27.45;;;14.02;;
33266;SDS011;19638;49.080;11.896;2023-02-23T12:38:04;19.88;;;11.55;;
33266;SDS011;19638;49.080;11.896;2023-02-23T12:42:14;21.08;;;11.32;;
33266;SDS011;19638;49.080;11.896;2023-02-23T12:46:23;21.27;;;11.18;;
33266;SDS011;19638;49.080;11.896;2023-02-23T12:50:30;18.50;;;9.82;;
33266;SDS011;19638;49.080;11.896;2023-02-23T12:54:37;28.27;;;10.68;;
33266;SDS011;19638;49.080;11.896;2023-02-23T12:58:43;24.42;;;11.98;;
33266;SDS011;19638;49.080;11.896;2023-02-23T13:02:54;23.27;;;10.88;;
33266;SDS011;19638;49.080;11.896;2023-02-23T13:07:28;17.13;;;8.90;;
33266;SDS011;19638;49.080;11.896;2023-02-23T13:16:14;13.55;;;7.20;;
33266;SDS011;19638;49.080;11.896;2023-02-23T13:20:29;17.20;;;7.85;;
33266;SDS011;19638;49.080;11.896;2023-02-23T13:24:37;13.52;;;7.18;;
33266;SDS011;19638;49.080;11.896;2023-02-23T13:28:50;16.20;;;8.70;;
33266;SDS011;19638;49.080;11.896;2023-02-23T13:32:58;17.67;;;9.48;;
33266;SDS011;19638;49.080;11.896;2023-02-23T13:37:05;14.60;;;8.70;;
33266;SDS011;19638;49.080;11.896;2023-02-23T13:41:18;17.60;;;9.02;;
33266;SDS011;19638;49.080;11.896;2023-02-23T13:45:37;14.52;;;8.60;;
33266;SDS011;19638;49.080;11.896;2023-02-23T13:49:48;21.05;;;9.88;;
33266;SDS011;19638;49.080;11.896;2023-02-23T13:54:01;24.52;;;9.52;;
33266;SDS011;19638;49.080;11.896;2023-02-23T13:58:25;22.02;;;10.23;;
33266;SDS011;19638;49.080;11.896;2023-02-23T14:02:34;18.02;;;9.57;;
33266;SDS011;19638;49.080;11.896;2023-02-23T14:06:49;18.23;;;9.48;;
33266;SDS011;19638;49.080;11.896;2023-02-23T14:10:57;20.42;;;10.18;;
33266;SDS011;19638;49.080;11.896;2023-02-23T14:19:44;23.00;;;9.32;;
33266;SDS011;19638;49.080;11.896;2023-02-23T14:24:12;19.77;;;9.60;;
33266;SDS011;19638;49.080;11.896;2023-02-23T14:28:22;20.67;;;9.88;;
33266;SDS011;19638;49.080;11.896;2023-02-23T14:32:33;19.83;;;10.07;;
33266;SDS011;19638;49.080;11.896;2023-02-23T14:36:43;26.85;;;11.05;;
33266;SDS011;19638;49.080;11.896;2023-02-23T14:40:47;19.42;;;11.23;;
33266;SDS011;19638;49.080;11.896;2023-02-23T14:44:52;17.95;;;10.13;;
33266;SDS011;19638;49.080;11.896;2023-02-23T14:48:58;19.27;;;10.93;;
33266;SDS011;19638;49.080;11.896;2023-02-23T14:53:12;20.92;;;11.07;;
33266;SDS011;19638;49.080;11.896;2023-02-23T14:57:33;18.75;;;10.77;;
33266;SDS011;19638;49.080;11.896;2023-02-23T15:01:45;21.10;;;10.95;;
33266;SDS011;19638;49.080;11.896;2023-02-23T15:05:49;19.05;;;10.52;;
33266;SDS011;19638;49.080;11.896;2023-02-23T15:09:57;24.05;;;11.52;;
33266;SDS011;19638;49.080;11.896;2023-02-23T15:14:01;23.38;;;12.38;;
33266;SDS011;19638;49.080;11.896;2023-02-23T15:18:15;24.25;;;12.43;;
33266;SDS011;19638;49.080;11.896;2023-02-23T15:22:30;25.60;;;12.93;;
33266;SDS011;19638;49.080;11.896;2023-02-23T15:26:39;25.40;;;13.02;;
33266;SDS011;19638;49.080;11.896;2023-02-23T15:30:44;28.08;;;12.95;;
33266;SDS011;19638;49.080;11.896;2023-02-23T15:34:49;21.17;;;11.70;;
33266;SDS011;19638;49.080;11.896;2023-02-23T15:38:53;23.98;;;12.48;;
33266;SDS011;19638;49.080;11.896;2023-02-23T15:43:02;22.90;;;11.90;;
33266;SDS011;19638;49.080;11.896;2023-02-23T15:47:05;21.13;;;11.60;;
33266;SDS011;19638;49.080;11.896;2023-02-23T15:51:19;32.67;;;11.75;;
33266;SDS011;19638;49.080;11.896;2023-02-23T15:55:35;22.58;;;11.65;;
33266;SDS011;19638;49.080;11.896;2023-02-23T15:59:44;35.50;;;18.80;;
33266;SDS011;19638;49.080;11.896;2023-02-23T16:03:54;27.88;;;16.45;;
33266;SDS011;19638;49.080;11.896;2023-02-23T16:08:06;20.10;;;11.50;;
33266;SDS011;19638;49.080;11.896;2023-02-23T16:12:27;19.77;;;11.88;;
33266;SDS011;19638;49.080;11.896;2023-02-23T16:16:36;25.55;;;11.73;;
33266;SDS011;19638;49.080;11.896;2023-02-23T16:20:40;25.20;;;12.02;;
33266;SDS011;19638;49.080;11.896;2023-02-23T16:24:52;24.58;;;12.68;;
33266;SDS011;19638;49.080;11.896;2023-02-23T16:29:01;28.65;;;13.35;;
33266;SDS011;19638;49.080;11.896;2023-02-23T16:33:12;33.53;;;14.07;;
33266;SDS011;19638;49.080;11.896;2023-02-23T16:37:22;29.70;;;13.98;;
33266;SDS011;19638;49.080;11.896;2023-02-23T16:41:32;33.15;;;13.73;;
33266;SDS011;19638;49.080;11.896;2023-02-23T16:45:38;30.90;;;14.27;;
33266;SDS011;19638;49.080;11.896;2023-02-23T16:49:44;30.02;;;12.93;;
33266;SDS011;19638;49.080;11.896;2023-02-23T16:53:48;36.70;;;15.23;;
33266;SDS011;19638;49.080;11.896;2023-02-23T16:57:56;30.45;;;15.60;;
33266;SDS011;19638;49.080;11.896;2023-02-23T17:02:01;39.00;;;17.42;;
33266;SDS011;19638;49.080;11.896;2023-02-23T17:06:11;33.22;;;15.57;;
33266;SDS011;19638;49.080;11.896;2023-02-23T17:10:15;32.10;;;14.80;;
33266;SDS011;19638;49.080;11.896;2023-02-23T17:14:25;31.25;;;12.75;;
33266;SDS011;19638;49.080;11.896;2023-02-23T17:18:32;29.27;;;12.85;;
33266;SDS011;19638;49.080;11.896;2023-02-23T17:22:47;30.63;;;13.55;;
33266;SDS011;19638;49.080;11.896;2023-02-23T17:26:52;28.27;;;12.48;;
33266;SDS011;19638;49.080;11.896;2023-02-23T17:30:58;29.65;;;13.98;;
33266;SDS011;19638;49.080;11.896;2023-02-23T17:35:04;37.42;;;13.73;;
33266;SDS011;19638;49.080;11.896;2023-02-23T17:39:11;34.75;;;13.57;;
33266;SDS011;19638;49.080;11.896;2023-02-23T17:43:18;36.17;;;13.88;;
33266;SDS011;19638;49.080;11.896;2023-02-23T17:47:24;39.90;;;14.32;;
33266;SDS011;19638;49.080;11.896;2023-02-23T17:51:30;33.63;;;13.27;;
33266;SDS011;19638;49.080;11.896;2023-02-23T17:55:45;46.50;;;13.95;;
33266;SDS011;19638;49.080;11.896;2023-02-23T17:59:51;38.97;;;14.70;;
33266;SDS011;19638;49.080;11.896;2023-02-23T18:03:55;45.08;;;16.92;;
33266;SDS011;19638;49.080;11.896;2023-02-23T18:08:07;40.13;;;16.08;;
33266;SDS011;19638;49.080;11.896;2023-02-23T18:12:12;46.55;;;17.02;;
33266;SDS011;19638;49.080;11.896;2023-02-23T18:16:15;162.75;;;24.10;;
33266;SDS011;19638;49.080;11.896;2023-02-23T18:20:19;47.88;;;18.27;;
33266;SDS011;19638;49.080;11.896;2023-02-23T18:24:22;40.72;;;17.02;;
33266;SDS011;19638;49.080;11.896;2023-02-23T18:28:30;50.88;;;19.60;;
33266;SDS011;19638;49.080;11.896;2023-02-23T18:32:33;50.35;;;18.05;;
33266;SDS011;19638;49.080;11.896;2023-02-23T18:36:39;52.90;;;19.15;;
33266;SDS011;19638;49.080;11.896;2023-02-23T18:40:43;58.58;;;19.10;;
33266;SDS011;19638;49.080;11.896;2023-02-23T18:44:53;54.20;;;20.25;;
33266;SDS011;19638;49.080;11.896;2023-02-23T18:48:57;56.47;;;19.08;;
33266;SDS011;19638;49.080;11.896;2023-02-23T18:53:04;60.13;;;21.00;;
33266;SDS011;19638;49.080;11.896;2023-02-23T18:57:10;58.08;;;18.95;;
33266;SDS011;19638;49.080;11.896;2023-02-23T19:01:17;54.97;;;20.00;;
33266;SDS011;19638;49.080;11.896;2023-02-23T19:05:23;60.17;;;19.67;;
33266;SDS011;19638;49.080;11.896;2023-02-23T19:09:26;62.80;;;20.52;;
33266;SDS011;19638;49.080;11.896;2023-02-23T19:13:29;67.03;;;21.27;;
33266;SDS011;19638;49.080;11.896;2023-02-23T19:17:39;76.47;;;22.13;;
33266;SDS011;19638;49.080;11.896;2023-02-23T19:21:43;84.20;;;22.58;;
33266;SDS011;19638;49.080;11.896;2023-02-23T19:25:49;72.45;;;25.58;;
33266;SDS011;19638;49.080;11.896;2023-02-23T19:29:52;66.03;;;26.08;;
33266;SDS011;19638;49.080;11.896;2023-02-23T19:33:58;91.78;;;28.85;;
33266;SDS011;19638;49.080;11.896;2023-02-23T19:38:05;75.78;;;24.80;;
33266;SDS011;19638;49.080;11.896;2023-02-23T19:42:11;82.07;;;27.92;;
33266;SDS011;19638;49.080;11.896;2023-02-23T19:46:18;92.95;;;24.38;;
33266;SDS011;19638;49.080;11.896;2023-02-23T19:50:23;80.20;;;24.23;;
33266;SDS011;19638;49.080;11.896;2023-02-23T19:54:26;76.40;;;26.08;;
33266;SDS011;19638;49.080;11.896;2023-02-23T19:58:38;82.40;;;26.42;;
33266;SDS011;19638;49.080;11.896;2023-02-23T20:02:48;80.28;;;27.70;;
33266;SDS011;19638;49.080;11.896;2023-02-23T20:06:56;83.60;;;24.60;;
33266;SDS011;19638;49.080;11.896;2023-02-23T20:11:03;67.60;;;24.55;;
33266;SDS011;19638;49.080;11.896;2023-02-23T20:15:09;77.80;;;24.50;;
33266;SDS011;19638;49.080;11.896;2023-02-23T20:19:15;238.75;;;33.45;;
33266;SDS011;19638;49.080;11.896;2023-02-23T20:23:21;559.75;;;44.03;;
33266;SDS011;19638;49.080;11.896;2023-02-23T20:27:27;333.88;;;37.90;;
33266;SDS011;19638;49.080;11.896;2023-02-23T20:31:30;128.13;;;29.83;;
33266;SDS011;19638;49.080;11.896;2023-02-23T20:35:38;122.93;;;28.50;;
33266;SDS011;19638;49.080;11.896;2023-02-23T20:39:46;258.10;;;35.83;;
33266;SDS011;19638;49.080;11.896;2023-02-23T20:43:49;191.07;;;34.33;;
33266;SDS011;19638;49.080;11.896;2023-02-23T20:47:53;213.43;;;37.07;;
33266;SDS011;19638;49.080;11.896;2023-02-23T20:51:58;603.42;;;48.13;;
33266;SDS011;19638;49.080;11.896;2023-02-23T20:56:05;509.63;;;46.70;;
33266;SDS011;19638;49.080;11.896;2023-02-23T21:00:11;401.10;;;41.10;;
33266;SDS011;19638;49.080;11.896;2023-02-23T21:04:23;326.02;;;47.42;;
33266;SDS011;19638;49.080;11.896;2023-02-23T21:08:27;109.18;;;30.10;;
33266;SDS011;19638;49.080;11.896;2023-02-23T21:12:31;240.13;;;35.75;;
33266;SDS011;19638;49.080;11.896;2023-02-23T21:16:35;489.00;;;47.75;;
33266;SDS011;19638;49.080;11.896;2023-02-23T21:20:41;259.52;;;38.47;;
33266;SDS011;19638;49.080;11.896;2023-02-23T21:24:45;432.33;;;45.85;;
33266;SDS011;19638;49.080;11.896;2023-02-23T21:28:56;350.85;;;45.00;;
33266;SDS011;19638;49.080;11.896;2023-02-23T21:32:59;108.43;;;30.87;;
33266;SDS011;19638;49.080;11.896;2023-02-23T21:37:06;564.25;;;51.55;;
33266;SDS011;19638;49.080;11.896;2023-02-23T21:41:12;819.88;;;60.92;;
33266;SDS011;19638;49.080;11.896;2023-02-23T21:45:19;712.78;;;57.15;;
33266;SDS011;19638;49.080;11.896;2023-02-23T21:49:24;813.85;;;59.33;;
33266;SDS011;19638;49.080;11.896;2023-02-23T21:53:30;735.58;;;54.65;;
33266;SDS011;19638;49.080;11.896;2023-02-23T21:57:33;885.83;;;61.80;;
33266;SDS011;19638;49.080;11.896;2023-02-23T22:01:38;856.75;;;60.75;;
33266;SDS011;19638;49.080;11.896;2023-02-23T22:05:45;710.57;;;57.73;;
33266;SDS011;19638;49.080;11.896;2023-02-23T22:09:51;784.33;;;59.40;;
33266;SDS011;19638;49.080;11.896;2023-02-23T22:13:56;671.17;;;55.42;;
33266;SDS011;19638;49.080;11.896;2023-02-23T22:18:02;646.00;;;54.77;;
33266;SDS011;19638;49.080;11.896;2023-02-23T22:22:06;819.03;;;62.80;;
33266;SDS011;19638;49.080;11.896;2023-02-23T22:26:09;853.53;;;59.80;;
33266;SDS011;19638;49.080;11.896;2023-02-23T22:30:12;516.85;;;44.25;;
33266;SDS011;19638;49.080;11.896;2023-02-23T22:34:18;363.70;;;42.90;;
33266;SDS011;19638;49.080;11.896;2023-02-23T22:38:29;414.17;;;40.90;;
33266;SDS011;19638;49.080;11.896;2023-02-23T22:42:32;503.90;;;48.13;;
33266;SDS011;19638;49.080;11.896;2023-02-23T22:46:36;147.07;;;30.47;;
33266;SDS011;19638;49.080;11.896;2023-02-23T22:50:41;169.77;;;30.30;;
33266;SDS011;19638;49.080;11.896;2023-02-23T22:54:45;529.72;;;47.15;;
33266;SDS011;19638;49.080;11.896;2023-02-23T22:58:51;377.67;;;37.97;;
33266;SDS011;19638;49.080;11.896;2023-02-23T23:02:54;363.40;;;39.63;;
33266;SDS011;19638;49.080;11.896;2023-02-23T23:07:03;159.10;;;32.03;;
33266;SDS011;19638;49.080;11.896;2023-02-23T23:11:09;164.25;;;31.27;;
33266;SDS011;19638;49.080;11.896;2023-02-23T23:15:14;543.72;;;46.53;;
33266;SDS011;19638;49.080;11.896;2023-02-23T23:19:23;128.57;;;28.38;;
33266;SDS011;19638;49.080;11.896;2023-02-23T23:23:28;124.72;;;27.98;;
33266;SDS011;19638;49.080;11.896;2023-02-23T23:27:35;144.82;;;28.85;;
33266;SDS011;19638;49.080;11.896;2023-02-23T23:31:41;108.73;;;30.07;;
33266;SDS011;19638;49.080;11.896;2023-02-23T23:35:49;161.82;;;30.77;;
33266;SDS011;19638;49.080;11.896;2023-02-23T23:39:59;151.77;;;29.53;;
33266;SDS011;19638;49.080;11.896;2023-02-23T23:44:15;126.82;;;27.83;;
33266;SDS011;19638;49.080;11.896;2023-02-23T23:48:19;102.23;;;28.07;;
33266;SDS011;19638;49.080;11.896;2023-02-23T23:52:22;117.23;;;29.23;;
33266;SDS011;19638;49.080;11.896;2023-02-23T23:56:32;95.80;;;26.40;;
